createdAt,value
2018-12-25T00:02:52.772Z," 6.14"
2018-12-25T00:07:48.391Z," 6.04"
2018-12-25T00:12:44.831Z," 6.09"
2018-12-25T00:17:40.491Z," 6.19"
2018-12-25T00:22:36.180Z," 6.01"
2018-12-25T00:27:32.006Z," 6.05"
2018-12-25T00:32:27.230Z," 6.05"
2018-12-25T00:37:23.061Z," 6.02"
2018-12-25T00:42:18.963Z," 5.99"
2018-12-25T00:47:14.781Z," 6.04"
2018-12-25T00:52:10.585Z," 6.07"
2018-12-25T00:57:07.323Z," 6.09"
2018-12-25T01:02:03.018Z," 6.07"
2018-12-25T01:06:59.569Z," 6.27"
2018-12-25T01:11:55.195Z," 6.12"
2018-12-25T01:16:50.900Z," 6.12"
2018-12-25T01:21:47.037Z," 6.12"
2018-12-25T01:26:42.949Z," 6.09"
2018-12-25T01:31:38.944Z," 6.11"
2018-12-25T01:36:34.756Z," 6.17"
2018-12-25T01:41:31.252Z," 6.17"
2018-12-25T01:46:26.510Z," 6.14"
2018-12-25T01:51:22.881Z," 6.24"
2018-12-25T01:56:19.743Z," 6.09"
2018-12-25T02:06:15.029Z," 6.16"
2018-12-25T02:11:10.618Z," 6.22"
2018-12-25T02:16:06.650Z," 6.26"
2018-12-25T02:21:02.991Z," 6.24"
2018-12-25T02:25:58.869Z," 5.98"
2018-12-25T02:30:54.491Z," 6.12"
2018-12-25T02:35:50.067Z," 5.97"
2018-12-25T02:40:45.697Z," 5.98"
2018-12-25T02:45:41.452Z," 6.05"
2018-12-25T02:50:37.115Z," 5.99"
2018-12-25T02:55:32.852Z," 5.90"
2018-12-25T03:00:29.698Z," 5.84"
2018-12-25T03:05:25.021Z," 5.84"
2018-12-25T03:10:21.593Z," 5.93"
2018-12-25T03:15:17.336Z," 5.94"
2018-12-25T03:20:13.281Z," 5.97"
2018-12-25T03:25:09.091Z," 5.99"
2018-12-25T03:30:05.713Z," 5.93"
2018-12-25T03:35:00.847Z," 5.89"
2018-12-25T03:39:56.352Z," 5.73"
2018-12-25T03:44:52.141Z," 5.79"
2018-12-25T03:49:48.798Z," 5.76"
2018-12-25T03:54:44.142Z," 5.73"
2018-12-25T03:59:40.468Z," 5.64"
2018-12-25T04:04:37.922Z," 5.65"
2018-12-25T04:09:33.485Z," 5.62"
2018-12-25T04:14:30.386Z," 5.64"
2018-12-25T04:19:26.561Z," 5.64"
2018-12-25T04:24:22.836Z," 5.66"
2018-12-25T04:29:19.294Z," 5.76"
2018-12-25T04:34:15.197Z," 5.79"
2018-12-25T04:39:11.704Z," 5.86"
2018-12-25T04:44:07.197Z," 5.69"
2018-12-25T04:49:03.211Z," 5.73"
2018-12-25T04:54:00.067Z," 5.69"
2018-12-25T04:58:55.512Z," 5.79"
2018-12-25T05:03:51.225Z," 5.66"
2018-12-25T05:08:47.263Z," 5.57"
2018-12-25T05:13:42.776Z," 5.64"
2018-12-25T05:18:38.410Z," 5.79"
2018-12-25T05:23:34.472Z," 5.72"
2018-12-25T05:28:30.896Z," 5.64"
2018-12-25T05:33:26.331Z," 5.68"
2018-12-25T05:38:21.957Z," 5.68"
2018-12-25T05:43:17.570Z," 5.66"
2018-12-25T05:48:13.394Z," 5.73"
2018-12-25T05:53:09.158Z," 5.73"
2018-12-25T05:58:04.764Z," 5.72"
2018-12-25T06:03:00.762Z," 5.72"
2018-12-25T06:07:57.443Z," 5.72"
2018-12-25T06:12:54.003Z," 5.73"
2018-12-25T06:17:49.547Z," 5.69"
2018-12-25T06:22:45.182Z," 5.71"
2018-12-25T06:27:41.369Z," 5.69"
2018-12-25T06:32:37.162Z," 5.69"
2018-12-25T06:37:33.302Z," 5.93"
2018-12-25T06:42:29.168Z," 5.79"
2018-12-25T06:47:25.058Z," 5.80"
2018-12-25T06:52:20.727Z," 5.90"
2018-12-25T06:57:16.261Z," 5.84"
2018-12-25T07:02:12.052Z," 5.98"
2018-12-25T07:07:07.989Z," 5.80"
2018-12-25T07:12:03.933Z," 5.83"
2018-12-25T07:16:59.261Z," 5.84"
2018-12-25T07:21:54.984Z," 5.89"
2018-12-25T07:26:50.836Z," 5.93"
2018-12-25T07:31:47.437Z," 5.90"
2018-12-25T07:36:44.195Z," 5.82"
2018-12-25T07:41:39.455Z," 5.93"
2018-12-25T07:46:35.226Z," 6.01"
2018-12-25T07:51:31.173Z," 5.98"
2018-12-25T07:56:27.519Z," 5.99"
2018-12-25T08:01:23.460Z," 5.98"
2018-12-25T08:06:20.085Z," 6.01"
2018-12-25T08:11:15.696Z," 6.02"
2018-12-25T08:16:11.381Z," 5.98"
2018-12-25T08:21:07.073Z," 5.98"
2018-12-25T08:26:02.947Z," 5.99"
2018-12-25T08:30:58.853Z," 6.12"
2018-12-25T08:35:54.645Z," 6.07"
2018-12-25T08:40:50.660Z," 6.20"
2018-12-25T08:45:47.460Z," 6.17"
2018-12-25T08:50:43.331Z," 6.24"
2018-12-25T08:55:39.140Z," 6.33"
2018-12-25T09:00:36.111Z," 6.35"
2018-12-25T09:05:31.534Z," 6.36"
2018-12-25T09:10:27.304Z," 6.48"
2018-12-25T09:15:24.960Z," 6.42"
2018-12-25T09:20:20.137Z," 6.35"
2018-12-25T09:25:16.419Z," 6.24"
2018-12-25T09:30:12.076Z," 6.41"
2018-12-25T09:35:07.842Z," 6.56"
2018-12-25T09:40:04.548Z," 6.42"
2018-12-25T09:45:00.275Z," 6.48"
2018-12-25T09:49:56.393Z," 6.56"
2018-12-25T09:54:53.361Z," 6.66"
2018-12-25T09:59:49.233Z," 6.72"
2018-12-25T10:04:45.212Z," 6.75"
2018-12-25T10:09:40.928Z," 6.81"
2018-12-25T10:14:36.695Z," 6.89"
2018-12-25T10:19:32.725Z," 6.85"
2018-12-25T10:24:28.461Z," 7.06"
2018-12-25T10:29:24.368Z," 7.11"
2018-12-25T10:34:20.263Z," 7.15"
2018-12-25T10:39:15.950Z," 7.31"
2018-12-25T10:44:12.053Z," 7.61"
2018-12-25T10:49:07.931Z," 7.48"
2018-12-25T10:54:03.706Z," 7.66"
2018-12-25T10:58:59.564Z," 7.43"
2018-12-25T11:03:56.856Z," 7.38"
2018-12-25T11:08:52.358Z," 7.45"
2018-12-25T11:13:48.222Z," 7.38"
2018-12-25T11:18:49.052Z," 7.56"
2018-12-25T11:23:43.215Z," 7.76"
2018-12-25T11:28:39.980Z," 7.75"
2018-12-25T11:33:35.584Z," 7.90"
2018-12-25T11:38:31.340Z," 7.93"
2018-12-25T11:43:28.006Z," 8.03"
2018-12-25T11:48:24.766Z," 8.08"
2018-12-25T11:53:20.555Z," 8.08"
2018-12-25T11:58:16.404Z," 8.20"
2018-12-25T12:03:12.735Z," 8.09"
2018-12-25T12:08:08.448Z," 8.10"
2018-12-25T12:13:04.235Z," 7.98"
2018-12-25T12:18:00.961Z," 8.00"
2018-12-25T12:22:56.443Z," 8.03"
2018-12-25T12:27:53.207Z," 8.13"
2018-12-25T12:32:49.278Z," 8.23"
2018-12-25T12:37:46.057Z," 8.28"
2018-12-25T12:42:41.386Z," 8.28"
2018-12-25T12:47:38.623Z," 8.26"
2018-12-25T12:52:35.025Z," 8.24"
2018-12-25T12:57:30.538Z," 8.15"
2018-12-25T13:02:26.246Z," 8.13"
2018-12-25T13:07:21.944Z," 8.13"
2018-12-25T13:12:17.377Z," 8.18"
2018-12-25T13:17:13.191Z," 7.95"
2018-12-25T13:22:09.862Z," 8.12"
2018-12-25T13:27:07.347Z," 8.12"
2018-12-25T13:32:03.916Z," 8.10"
2018-12-25T13:36:59.231Z," 7.98"
2018-12-25T13:41:54.879Z," 7.91"
2018-12-25T13:46:51.650Z," 7.94"
2018-12-25T13:51:47.266Z," 7.82"
2018-12-25T13:56:43.669Z," 7.85"
2018-12-25T14:01:39.664Z," 7.91"
2018-12-25T14:06:36.286Z," 7.79"
2018-12-25T14:11:32.220Z," 7.79"
2018-12-25T14:16:27.926Z," 7.82"
2018-12-25T14:21:24.585Z," 7.77"
2018-12-25T14:26:20.908Z," 7.72"
2018-12-25T14:31:16.314Z," 7.77"
2018-12-25T14:36:12.044Z," 7.60"
2018-12-25T14:41:09.402Z," 7.61"
2018-12-25T14:46:04.689Z," 7.51"
2018-12-25T14:51:00.393Z," 7.50"
2018-12-25T14:55:56.962Z," 7.35"
2018-12-25T15:00:53.424Z," 7.32"
2018-12-25T15:05:48.690Z," 7.23"
2018-12-25T15:10:43.905Z," 7.20"
2018-12-25T15:15:40.006Z," 7.07"
2018-12-25T15:20:35.835Z," 7.06"
2018-12-25T15:25:31.341Z," 7.03"
2018-12-25T15:30:26.898Z," 6.92"
2018-12-25T15:35:23.519Z," 6.92"
2018-12-25T15:40:19.037Z," 7.02"
2018-12-25T15:45:14.884Z," 6.85"
2018-12-25T15:50:10.780Z," 6.84"
2018-12-25T15:55:06.195Z," 6.79"
2018-12-25T16:00:02.791Z," 6.85"
2018-12-25T16:04:58.074Z," 6.79"
2018-12-25T16:09:53.815Z," 6.84"
2018-12-25T16:14:49.513Z," 6.84"
2018-12-25T16:19:45.552Z," 6.75"
2018-12-25T16:24:41.328Z," 6.75"
2018-12-25T16:29:36.955Z," 6.74"
2018-12-25T16:34:32.695Z," 6.70"
2018-12-25T16:39:29.740Z," 6.77"
2018-12-25T16:44:26.280Z," 6.67"
2018-12-25T16:49:21.663Z," 6.62"
2018-12-25T16:54:18.339Z," 6.70"
2018-12-25T16:59:13.893Z," 6.59"
2018-12-25T17:04:10.441Z," 6.51"
2018-12-25T17:09:06.500Z," 6.59"
2018-12-25T17:14:03.201Z," 6.60"
2018-12-25T17:18:59.745Z," 6.46"
2018-12-25T17:24:02.229Z," 6.48"
2018-12-25T17:28:55.569Z," 6.62"
2018-12-25T17:33:52.036Z," 6.54"
2018-12-25T17:38:47.576Z," 6.46"
2018-12-25T17:43:43.097Z," 6.45"
2018-12-25T17:48:39.964Z," 6.45"
2018-12-25T17:53:35.244Z," 6.41"
2018-12-25T17:58:30.785Z," 6.35"
2018-12-25T18:03:27.860Z," 6.45"
2018-12-25T18:08:23.601Z," 6.44"
2018-12-25T18:13:20.359Z," 6.38"
2018-12-25T18:18:16.718Z," 6.44"
2018-12-25T18:23:12.087Z," 6.45"
2018-12-25T18:28:07.721Z," 6.44"
2018-12-25T18:33:03.587Z," 6.38"
2018-12-25T18:37:59.349Z," 6.38"
2018-12-25T18:42:55.064Z," 6.28"
2018-12-25T18:47:50.639Z," 6.36"
2018-12-25T18:52:46.381Z," 6.33"
2018-12-25T18:57:42.220Z," 6.30"
2018-12-25T19:02:38.641Z," 6.26"
2018-12-25T19:07:35.375Z," 6.27"
2018-12-25T19:12:30.781Z," 6.17"
2018-12-25T19:17:26.645Z," 6.24"
2018-12-25T19:22:23.225Z," 6.27"
2018-12-25T19:27:18.751Z," 6.11"
2018-12-25T19:32:14.371Z," 6.07"
2018-12-25T19:37:11.086Z," 6.08"
2018-12-25T19:42:07.257Z," 6.07"
2018-12-25T19:47:02.800Z," 6.11"
2018-12-25T19:51:59.602Z," 5.93"
2018-12-25T19:56:55.081Z," 6.14"
2018-12-25T20:01:51.737Z," 6.01"
2018-12-25T20:06:47.107Z," 5.99"
2018-12-25T20:11:42.766Z," 6.07"
2018-12-25T20:16:38.451Z," 5.86"
2018-12-25T20:21:34.267Z," 5.91"
2018-12-25T20:26:31.071Z," 5.84"
2018-12-25T20:31:26.316Z," 5.82"
2018-12-25T20:36:22.135Z," 5.83"
2018-12-25T20:41:17.757Z," 5.76"
2018-12-25T20:46:14.574Z," 5.86"
2018-12-25T20:51:09.526Z," 5.75"
2018-12-25T20:56:06.635Z," 5.65"
2018-12-25T21:01:03.059Z," 5.69"
2018-12-25T21:05:59.475Z," 5.71"
2018-12-25T21:10:55.814Z," 5.71"
2018-12-25T21:15:52.056Z," 5.65"
2018-12-25T21:20:48.441Z," 5.56"
2018-12-25T21:25:44.294Z," 5.53"
2018-12-25T21:30:41.638Z," 5.35"
2018-12-25T21:35:37.114Z," 5.43"
2018-12-25T21:40:32.604Z," 5.38"
2018-12-25T21:45:29.274Z," 5.44"
2018-12-25T21:50:25.089Z," 5.26"
2018-12-25T21:55:21.497Z," 5.23"
2018-12-25T22:00:17.293Z," 5.23"
2018-12-25T22:05:13.135Z," 5.07"
2018-12-25T22:10:09.428Z," 5.07"
2018-12-25T22:15:05.761Z," 4.94"
2018-12-25T22:20:02.577Z," 4.94"
2018-12-25T22:24:59.163Z," 4.92"
2018-12-25T22:29:54.313Z," 4.78"
2018-12-25T22:34:49.973Z," 4.70"
2018-12-25T22:39:45.703Z," 4.67"
2018-12-25T22:44:41.431Z," 4.62"
2018-12-25T22:49:37.893Z," 4.56"
2018-12-25T22:54:33.220Z," 4.48"
2018-12-25T22:59:29.773Z," 4.34"
2018-12-25T23:04:25.052Z," 4.24"
2018-12-25T23:09:21.260Z," 4.08"
2018-12-25T23:14:17.935Z," 4.02"
2018-12-25T23:19:12.799Z," 3.91"
2018-12-25T23:24:09.105Z," 3.69"
2018-12-25T23:29:04.787Z," 3.74"
2018-12-25T23:34:01.489Z," 3.68"
2018-12-25T23:38:57.160Z," 3.68"
2018-12-25T23:43:52.666Z," 3.63"
2018-12-25T23:48:49.323Z," 3.58"
2018-12-25T23:53:44.389Z," 3.63"
2018-12-25T23:58:39.798Z," 3.58"
